sensor_id;sensor_type;location;lat;lon;timestamp;pressure;altitude;pressure_sealevel;temperature;humidity
49843;BME280;55559;48.898;9.184;2023-02-04T00:00:12;99693.38;;;6.89;100.00
49843;BME280;55559;48.898;9.184;2023-02-04T00:02:42;99699.69;;;6.86;100.00
49843;BME280;55559;48.898;9.184;2023-02-04T00:05:10;99694.72;;;6.80;100.00
49843;BME280;55559;48.898;9.184;2023-02-04T00:07:38;99708.09;;;6.77;100.00
49843;BME280;55559;48.898;9.184;2023-02-04T00:10:06;99703.50;;;6.81;100.00
49843;BME280;55559;48.898;9.184;2023-02-04T00:12:35;99705.53;;;6.76;100.00
49843;BME280;55559;48.898;9.184;2023-02-04T00:15:03;99699.16;;;6.80;100.00
49843;BME280;55559;48.898;9.184;2023-02-04T00:17:31;99702.97;;;6.74;100.00
49843;BME280;55559;48.898;9.184;2023-02-04T00:19:58;99694.78;;;6.79;100.00
49843;BME280;55559;48.898;9.184;2023-02-04T00:22:26;99714.00;;;6.82;100.00
49843;BME280;55559;48.898;9.184;2023-02-04T00:24:54;99711.50;;;6.79;100.00
49843;BME280;55559;48.898;9.184;2023-02-04T00:27:21;99702.81;;;6.77;100.00
49843;BME280;55559;48.898;9.184;2023-02-04T00:29:50;99699.06;;;6.81;100.00
49843;BME280;55559;48.898;9.184;2023-02-04T00:32:18;99701.72;;;6.81;100.00
49843;BME280;55559;48.898;9.184;2023-02-04T00:34:45;99706.91;;;6.83;100.00
49843;BME280;55559;48.898;9.184;2023-02-04T00:37:13;99688.06;;;6.89;100.00
49843;BME280;55559;48.898;9.184;2023-02-04T00:39:40;99700.38;;;6.90;100.00
49843;BME280;55559;48.898;9.184;2023-02-04T00:42:08;99695.75;;;6.94;100.00
49843;BME280;55559;48.898;9.184;2023-02-04T00:44:35;99698.16;;;6.98;100.00
49843;BME280;55559;48.898;9.184;2023-02-04T00:47:04;99696.28;;;7.00;100.00
49843;BME280;55559;48.898;9.184;2023-02-04T00:49:33;99695.34;;;7.01;100.00
49843;BME280;55559;48.898;9.184;2023-02-04T00:52:01;99699.78;;;7.01;100.00
49843;BME280;55559;48.898;9.184;2023-02-04T00:54:28;99701.75;;;6.97;100.00
49843;BME280;55559;48.898;9.184;2023-02-04T00:56:56;99711.72;;;6.92;100.00
49843;BME280;55559;48.898;9.184;2023-02-04T00:59:23;99704.69;;;6.91;100.00
49843;BME280;55559;48.898;9.184;2023-02-04T01:01:51;99711.94;;;6.87;100.00
49843;BME280;55559;48.898;9.184;2023-02-04T01:04:19;99718.19;;;6.86;100.00
49843;BME280;55559;48.898;9.184;2023-02-04T01:06:50;99715.13;;;6.94;100.00
49843;BME280;55559;48.898;9.184;2023-02-04T01:09:17;99692.09;;;6.96;100.00
49843;BME280;55559;48.898;9.184;2023-02-04T01:11:45;99692.88;;;6.98;100.00
49843;BME280;55559;48.898;9.184;2023-02-04T01:14:12;99691.31;;;6.94;100.00
49843;BME280;55559;48.898;9.184;2023-02-04T01:16:40;99698.94;;;7.00;100.00
49843;BME280;55559;48.898;9.184;2023-02-04T01:19:07;99690.63;;;6.91;100.00
49843;BME280;55559;48.898;9.184;2023-02-04T01:21:36;99707.34;;;6.91;100.00
49843;BME280;55559;48.898;9.184;2023-02-04T01:24:04;99715.63;;;6.85;100.00
49843;BME280;55559;48.898;9.184;2023-02-04T01:26:51;99709.81;;;6.78;100.00
49843;BME280;55559;48.898;9.184;2023-02-04T01:29:19;99724.28;;;6.71;100.00
49843;BME280;55559;48.898;9.184;2023-02-04T01:31:46;99716.88;;;6.78;100.00
49843;BME280;55559;48.898;9.184;2023-02-04T01:34:13;99727.44;;;6.78;100.00
49843;BME280;55559;48.898;9.184;2023-02-04T01:36:42;99739.06;;;6.75;100.00
49843;BME280;55559;48.898;9.184;2023-02-04T01:39:10;99733.00;;;6.73;100.00
49843;BME280;55559;48.898;9.184;2023-02-04T01:41:38;99738.03;;;6.78;100.00
49843;BME280;55559;48.898;9.184;2023-02-04T01:44:06;99731.88;;;6.77;100.00
49843;BME280;55559;48.898;9.184;2023-02-04T01:46:34;99741.47;;;6.80;100.00
49843;BME280;55559;48.898;9.184;2023-02-04T01:49:02;99733.44;;;6.81;100.00
49843;BME280;55559;48.898;9.184;2023-02-04T01:51:30;99727.28;;;6.81;100.00
49843;BME280;55559;48.898;9.184;2023-02-04T01:54:00;99739.34;;;6.86;100.00
49843;BME280;55559;48.898;9.184;2023-02-04T01:56:30;99747.97;;;6.90;100.00
49843;BME280;55559;48.898;9.184;2023-02-04T01:58:58;99731.22;;;6.89;100.00
49843;BME280;55559;48.898;9.184;2023-02-04T02:01:34;99745.31;;;6.90;100.00
49843;BME280;55559;48.898;9.184;2023-02-04T02:04:02;99746.47;;;6.84;100.00
49843;BME280;55559;48.898;9.184;2023-02-04T02:06:32;99741.88;;;6.88;100.00
49843;BME280;55559;48.898;9.184;2023-02-04T02:09:02;99756.22;;;6.84;100.00
49843;BME280;55559;48.898;9.184;2023-02-04T02:11:29;99752.72;;;6.83;100.00
49843;BME280;55559;48.898;9.184;2023-02-04T02:13:58;99755.09;;;6.88;100.00
49843;BME280;55559;48.898;9.184;2023-02-04T02:16:28;99752.72;;;6.83;100.00
49843;BME280;55559;48.898;9.184;2023-02-04T02:18:56;99750.94;;;6.84;100.00
49843;BME280;55559;48.898;9.184;2023-02-04T02:21:31;99766.78;;;6.84;100.00
49843;BME280;55559;48.898;9.184;2023-02-04T02:24:23;99754.84;;;6.77;100.00
49843;BME280;55559;48.898;9.184;2023-02-04T02:26:52;99768.81;;;6.79;100.00
49843;BME280;55559;48.898;9.184;2023-02-04T02:29:24;99779.09;;;6.85;100.00
49843;BME280;55559;48.898;9.184;2023-02-04T02:31:52;99779.72;;;6.73;100.00
49843;BME280;55559;48.898;9.184;2023-02-04T02:34:25;99788.31;;;6.76;100.00
49843;BME280;55559;48.898;9.184;2023-02-04T02:36:54;99774.75;;;6.66;100.00
49843;BME280;55559;48.898;9.184;2023-02-04T02:39:24;99763.56;;;6.61;100.00
49843;BME280;55559;48.898;9.184;2023-02-04T02:41:52;99771.09;;;6.69;100.00
49843;BME280;55559;48.898;9.184;2023-02-04T02:44:21;99774.16;;;6.61;100.00
49843;BME280;55559;48.898;9.184;2023-02-04T02:46:50;99761.09;;;6.58;100.00
49843;BME280;55559;48.898;9.184;2023-02-04T02:49:18;99770.88;;;6.56;100.00
49843;BME280;55559;48.898;9.184;2023-02-04T02:51:47;99769.00;;;6.58;100.00
49843;BME280;55559;48.898;9.184;2023-02-04T02:54:19;99772.56;;;6.57;100.00
49843;BME280;55559;48.898;9.184;2023-02-04T02:56:52;99772.53;;;6.41;100.00
49843;BME280;55559;48.898;9.184;2023-02-04T02:59:22;99777.53;;;6.46;100.00
49843;BME280;55559;48.898;9.184;2023-02-04T03:01:53;99775.84;;;6.45;100.00
49843;BME280;55559;48.898;9.184;2023-02-04T03:04:23;99778.50;;;6.45;100.00
49843;BME280;55559;48.898;9.184;2023-02-04T03:06:53;99784.97;;;6.39;100.00
49843;BME280;55559;48.898;9.184;2023-02-04T03:09:22;99785.09;;;6.36;100.00
49843;BME280;55559;48.898;9.184;2023-02-04T03:11:53;99791.31;;;6.35;100.00
49843;BME280;55559;48.898;9.184;2023-02-04T03:14:22;99800.00;;;6.37;100.00
49843;BME280;55559;48.898;9.184;2023-02-04T03:16:51;99795.53;;;6.39;100.00
49843;BME280;55559;48.898;9.184;2023-02-04T03:19:20;99807.25;;;6.33;100.00
49843;BME280;55559;48.898;9.184;2023-02-04T03:21:49;99807.25;;;6.33;100.00
49843;BME280;55559;48.898;9.184;2023-02-04T03:24:16;99811.13;;;6.26;100.00
49843;BME280;55559;48.898;9.184;2023-02-04T03:26:44;99809.47;;;6.24;100.00
49843;BME280;55559;48.898;9.184;2023-02-04T03:29:13;99815.63;;;6.24;100.00
49843;BME280;55559;48.898;9.184;2023-02-04T03:31:41;99821.97;;;6.20;100.00
49843;BME280;55559;48.898;9.184;2023-02-04T03:34:08;99822.94;;;6.19;100.00
49843;BME280;55559;48.898;9.184;2023-02-04T03:36:36;99824.25;;;6.28;100.00
49843;BME280;55559;48.898;9.184;2023-02-04T03:39:03;99833.97;;;6.27;100.00
49843;BME280;55559;48.898;9.184;2023-02-04T03:41:31;99830.84;;;6.19;100.00
49843;BME280;55559;48.898;9.184;2023-02-04T03:43:58;99833.72;;;6.14;100.00
49843;BME280;55559;48.898;9.184;2023-02-04T03:46:27;99841.72;;;6.13;100.00
49843;BME280;55559;48.898;9.184;2023-02-04T03:48:55;99831.00;;;6.16;100.00
49843;BME280;55559;48.898;9.184;2023-02-04T03:51:22;99838.78;;;6.19;100.00
49843;BME280;55559;48.898;9.184;2023-02-04T03:53:49;99845.69;;;6.22;100.00
49843;BME280;55559;48.898;9.184;2023-02-04T03:56:17;99846.44;;;6.24;100.00
49843;BME280;55559;48.898;9.184;2023-02-04T03:58:44;99857.28;;;6.19;100.00
49843;BME280;55559;48.898;9.184;2023-02-04T04:01:12;99853.81;;;6.17;100.00
49843;BME280;55559;48.898;9.184;2023-02-04T04:03:41;99865.13;;;6.21;100.00
49843;BME280;55559;48.898;9.184;2023-02-04T04:06:08;99868.81;;;6.17;100.00
49843;BME280;55559;48.898;9.184;2023-02-04T04:08:36;99868.53;;;6.23;100.00
49843;BME280;55559;48.898;9.184;2023-02-04T04:11:03;99872.31;;;6.17;100.00
49843;BME280;55559;48.898;9.184;2023-02-04T04:13:31;99870.69;;;6.14;100.00
49843;BME280;55559;48.898;9.184;2023-02-04T04:15:58;99876.81;;;6.15;100.00
49843;BME280;55559;48.898;9.184;2023-02-04T04:18:28;99873.25;;;6.16;100.00
49843;BME280;55559;48.898;9.184;2023-02-04T04:20:57;99865.63;;;6.10;100.00
49843;BME280;55559;48.898;9.184;2023-02-04T04:23:24;99878.25;;;6.03;100.00
49843;BME280;55559;48.898;9.184;2023-02-04T04:25:52;99878.97;;;6.07;100.00
49843;BME280;55559;48.898;9.184;2023-02-04T04:28:19;99881.41;;;6.11;100.00
49843;BME280;55559;48.898;9.184;2023-02-04T04:30:47;99891.47;;;6.03;100.00
49843;BME280;55559;48.898;9.184;2023-02-04T04:33:14;99891.53;;;6.02;100.00
49843;BME280;55559;48.898;9.184;2023-02-04T04:35:41;99895.97;;;6.01;100.00
49843;BME280;55559;48.898;9.184;2023-02-04T04:38:10;99900.66;;;5.94;100.00
49843;BME280;55559;48.898;9.184;2023-02-04T04:40:38;99912.91;;;5.97;100.00
49843;BME280;55559;48.898;9.184;2023-02-04T04:43:05;99916.63;;;5.91;100.00
49843;BME280;55559;48.898;9.184;2023-02-04T04:45:33;99908.84;;;5.88;100.00
49843;BME280;55559;48.898;9.184;2023-02-04T04:48:03;99918.63;;;5.86;100.00
49843;BME280;55559;48.898;9.184;2023-02-04T04:50:31;99918.75;;;5.83;100.00
49843;BME280;55559;48.898;9.184;2023-02-04T04:52:58;99914.63;;;5.77;100.00
49843;BME280;55559;48.898;9.184;2023-02-04T04:55:27;99921.69;;;5.77;100.00
49843;BME280;55559;48.898;9.184;2023-02-04T04:57:55;99919.25;;;5.72;100.00
49843;BME280;55559;48.898;9.184;2023-02-04T05:00:23;99915.84;;;5.70;100.00
49843;BME280;55559;48.898;9.184;2023-02-04T05:02:50;99915.19;;;5.65;100.00
49843;BME280;55559;48.898;9.184;2023-02-04T05:05:17;99919.66;;;5.63;100.00
49843;BME280;55559;48.898;9.184;2023-02-04T05:07:45;99918.81;;;5.63;100.00
49843;BME280;55559;48.898;9.184;2023-02-04T05:10:13;99921.47;;;5.63;100.00
49843;BME280;55559;48.898;9.184;2023-02-04T05:12:42;99926.88;;;5.59;100.00
49843;BME280;55559;48.898;9.184;2023-02-04T05:15:09;99922.47;;;5.60;100.00
49843;BME280;55559;48.898;9.184;2023-02-04T05:17:37;99918.09;;;5.59;100.00
49843;BME280;55559;48.898;9.184;2023-02-04T05:20:05;99923.25;;;5.62;100.00
49843;BME280;55559;48.898;9.184;2023-02-04T05:22:32;99917.19;;;5.60;100.00
49843;BME280;55559;48.898;9.184;2023-02-04T05:25:00;99927.28;;;5.50;100.00
49843;BME280;55559;48.898;9.184;2023-02-04T05:27:27;99933.34;;;5.52;100.00
49843;BME280;55559;48.898;9.184;2023-02-04T05:29:56;99931.72;;;5.50;100.00
49843;BME280;55559;48.898;9.184;2023-02-04T05:32:23;99940.63;;;5.47;100.00
49843;BME280;55559;48.898;9.184;2023-02-04T05:34:51;99941.81;;;5.40;100.00
49843;BME280;55559;48.898;9.184;2023-02-04T05:37:18;99945.25;;;5.42;100.00
49843;BME280;55559;48.898;9.184;2023-02-04T05:39:46;99948.72;;;5.43;100.00
49843;BME280;55559;48.898;9.184;2023-02-04T05:42:13;99952.16;;;5.45;100.00
49843;BME280;55559;48.898;9.184;2023-02-04T05:44:41;99944.47;;;5.40;100.00
49843;BME280;55559;48.898;9.184;2023-02-04T05:47:09;99934.81;;;5.39;100.00
49843;BME280;55559;48.898;9.184;2023-02-04T05:49:37;99937.72;;;5.33;100.00
49843;BME280;55559;48.898;9.184;2023-02-04T05:52:04;99941.94;;;5.37;100.00
49843;BME280;55559;48.898;9.184;2023-02-04T05:54:32;99934.81;;;5.39;100.00
49843;BME280;55559;48.898;9.184;2023-02-04T05:56:59;99946.38;;;5.36;100.00
49843;BME280;55559;48.898;9.184;2023-02-04T05:59:27;99947.28;;;5.35;100.00
49843;BME280;55559;48.898;9.184;2023-02-04T06:01:54;99963.25;;;5.32;100.00
49843;BME280;55559;48.898;9.184;2023-02-04T06:04:23;99969.59;;;5.28;100.00
49843;BME280;55559;48.898;9.184;2023-02-04T06:06:51;99982.72;;;5.30;100.00
49843;BME280;55559;48.898;9.184;2023-02-04T06:09:18;99983.75;;;5.26;100.00
49843;BME280;55559;48.898;9.184;2023-02-04T06:11:45;99984.94;;;5.18;100.00
49843;BME280;55559;48.898;9.184;2023-02-04T06:14:13;99981.53;;;5.16;100.00
49843;BME280;55559;48.898;9.184;2023-02-04T06:16:40;99992.97;;;5.15;100.00
49843;BME280;55559;48.898;9.184;2023-02-04T06:19:08;99996.63;;;5.13;100.00
49843;BME280;55559;48.898;9.184;2023-02-04T06:21:36;99998.50;;;5.09;100.00
49843;BME280;55559;48.898;9.184;2023-02-04T06:24:05;99995.81;;;5.11;100.00
49843;BME280;55559;48.898;9.184;2023-02-04T06:26:32;99993.97;;;5.13;100.00
49843;BME280;55559;48.898;9.184;2023-02-04T06:29:00;100007.41;;;5.07;100.00
49843;BME280;55559;48.898;9.184;2023-02-04T06:31:27;100010.91;;;5.07;100.00
49843;BME280;55559;48.898;9.184;2023-02-04T06:33:54;100013.88;;;4.99;100.00
49843;BME280;55559;48.898;9.184;2023-02-04T06:36:22;100010.22;;;5.02;100.00
49843;BME280;55559;48.898;9.184;2023-02-04T06:38:51;100000.47;;;5.04;100.00
49843;BME280;55559;48.898;9.184;2023-02-04T06:41:18;100005.50;;;5.10;100.00
49843;BME280;55559;48.898;9.184;2023-02-04T06:43:46;100010.78;;;5.10;100.00
49843;BME280;55559;48.898;9.184;2023-02-04T06:46:13;100015.94;;;5.13;100.00
49843;BME280;55559;48.898;9.184;2023-02-04T06:48:41;100013.41;;;5.10;100.00
49843;BME280;55559;48.898;9.184;2023-02-04T06:51:08;100032.47;;;5.17;100.00
49843;BME280;55559;48.898;9.184;2023-02-04T06:53:36;100030.69;;;5.17;100.00
49843;BME280;55559;48.898;9.184;2023-02-04T06:56:05;100037.69;;;5.18;100.00
49843;BME280;55559;48.898;9.184;2023-02-04T06:58:32;100038.47;;;5.20;100.00
49843;BME280;55559;48.898;9.184;2023-02-04T07:01:00;100033.94;;;5.24;100.00
49843;BME280;55559;48.898;9.184;2023-02-04T07:03:27;100033.25;;;5.19;100.00
49843;BME280;55559;48.898;9.184;2023-02-04T07:05:55;100034.19;;;5.18;100.00
49843;BME280;55559;48.898;9.184;2023-02-04T07:08:22;100034.75;;;5.26;100.00
49843;BME280;55559;48.898;9.184;2023-02-04T07:10:50;100048.97;;;5.22;100.00
49843;BME280;55559;48.898;9.184;2023-02-04T07:13:19;100056.50;;;5.31;100.00
49843;BME280;55559;48.898;9.184;2023-02-04T07:15:46;100062.63;;;5.32;100.00
49843;BME280;55559;48.898;9.184;2023-02-04T07:18:14;100066.13;;;5.32;100.00
49843;BME280;55559;48.898;9.184;2023-02-04T07:20:42;100065.34;;;5.30;100.00
49843;BME280;55559;48.898;9.184;2023-02-04T07:23:10;100070.78;;;5.26;100.00
49843;BME280;55559;48.898;9.184;2023-02-04T07:25:37;100090.19;;;5.25;100.00
49843;BME280;55559;48.898;9.184;2023-02-04T07:28:05;100083.69;;;5.33;100.00
49843;BME280;55559;48.898;9.184;2023-02-04T07:30:34;100084.59;;;5.32;100.00
49843;BME280;55559;48.898;9.184;2023-02-04T07:33:01;100080.56;;;5.24;100.00
49843;BME280;55559;48.898;9.184;2023-02-04T07:35:28;100088.47;;;5.24;100.00
49843;BME280;55559;48.898;9.184;2023-02-04T07:37:56;100083.06;;;5.27;100.00
49843;BME280;55559;48.898;9.184;2023-02-04T07:40:23;100083.19;;;5.24;100.00
49843;BME280;55559;48.898;9.184;2023-02-04T07:42:51;100073.44;;;5.26;100.00
49843;BME280;55559;48.898;9.184;2023-02-04T07:45:21;100080.72;;;5.19;100.00
49843;BME280;55559;48.898;9.184;2023-02-04T07:47:51;100083.31;;;5.20;100.00
49843;BME280;55559;48.898;9.184;2023-02-04T07:50:18;100080.72;;;5.19;100.00
49843;BME280;55559;48.898;9.184;2023-02-04T07:52:46;100081.47;;;5.22;100.00
49843;BME280;55559;48.898;9.184;2023-02-04T07:55:13;100095.66;;;5.20;100.00
49843;BME280;55559;48.898;9.184;2023-02-04T07:57:41;100106.94;;;5.24;100.00
49843;BME280;55559;48.898;9.184;2023-02-04T08:00:09;100112.03;;;5.28;100.00
49843;BME280;55559;48.898;9.184;2023-02-04T08:02:39;100114.53;;;5.31;100.00
49843;BME280;55559;48.898;9.184;2023-02-04T08:05:08;100121.69;;;5.28;100.00
49843;BME280;55559;48.898;9.184;2023-02-04T08:07:36;100114.72;;;5.27;100.00
49843;BME280;55559;48.898;9.184;2023-02-04T08:10:04;100117.28;;;5.28;100.00
49843;BME280;55559;48.898;9.184;2023-02-04T08:12:32;100116.25;;;5.32;100.00
49843;BME280;55559;48.898;9.184;2023-02-04T08:14:59;100117.63;;;5.41;100.00
49843;BME280;55559;48.898;9.184;2023-02-04T08:17:27;100107.34;;;5.35;100.00
49843;BME280;55559;48.898;9.184;2023-02-04T08:19:55;100112.75;;;5.32;100.00
49843;BME280;55559;48.898;9.184;2023-02-04T08:22:24;100124.81;;;5.37;100.00
49843;BME280;55559;48.898;9.184;2023-02-04T08:24:52;100129.25;;;5.37;100.00
49843;BME280;55559;48.898;9.184;2023-02-04T08:27:19;100139.91;;;5.34;100.00
49843;BME280;55559;48.898;9.184;2023-02-04T08:29:47;100151.31;;;5.34;100.00
49843;BME280;55559;48.898;9.184;2023-02-04T08:32:14;100148.75;;;5.33;100.00
49843;BME280;55559;48.898;9.184;2023-02-04T08:34:42;100154.00;;;5.33;100.00
49843;BME280;55559;48.898;9.184;2023-02-04T08:37:09;100149.19;;;5.22;100.00
49843;BME280;55559;48.898;9.184;2023-02-04T08:39:38;100149.69;;;5.32;100.00
49843;BME280;55559;48.898;9.184;2023-02-04T08:42:11;100150.97;;;5.21;100.00
49843;BME280;55559;48.898;9.184;2023-02-04T08:44:38;100157.66;;;5.30;100.00
49843;BME280;55559;48.898;9.184;2023-02-04T08:47:06;100152.81;;;5.19;100.00
49843;BME280;55559;48.898;9.184;2023-02-04T08:49:34;100163.53;;;5.15;100.00
49843;BME280;55559;48.898;9.184;2023-02-04T08:52:02;100165.06;;;5.20;100.00
49843;BME280;55559;48.898;9.184;2023-02-04T08:54:31;100170.34;;;5.20;100.00
49843;BME280;55559;48.898;9.184;2023-02-04T08:57:00;100180.16;;;5.17;100.00
49843;BME280;55559;48.898;9.184;2023-02-04T08:59:28;100183.53;;;5.20;100.00
49843;BME280;55559;48.898;9.184;2023-02-04T09:01:56;100178.94;;;5.26;100.00
49843;BME280;55559;48.898;9.184;2023-02-04T09:04:23;100176.00;;;5.33;100.00
49843;BME280;55559;48.898;9.184;2023-02-04T09:06:51;100180.09;;;5.40;100.00
49843;BME280;55559;48.898;9.184;2023-02-04T09:09:18;100182.84;;;5.37;100.00
49843;BME280;55559;48.898;9.184;2023-02-04T09:11:46;100190.31;;;5.50;100.00
49843;BME280;55559;48.898;9.184;2023-02-04T09:14:14;100174.97;;;5.58;100.00
49843;BME280;55559;48.898;9.184;2023-02-04T09:16:42;100186.03;;;5.68;100.00
49843;BME280;55559;48.898;9.184;2023-02-04T09:19:09;100180.38;;;5.77;100.00
49843;BME280;55559;48.898;9.184;2023-02-04T09:21:40;100181.44;;;5.93;100.00
49843;BME280;55559;48.898;9.184;2023-02-04T09:24:08;100191.59;;;6.04;100.00
49843;BME280;55559;48.898;9.184;2023-02-04T09:26:35;100191.34;;;5.88;100.00
49843;BME280;55559;48.898;9.184;2023-02-04T09:29:02;100197.38;;;5.92;100.00
49843;BME280;55559;48.898;9.184;2023-02-04T09:31:31;100192.50;;;6.24;100.00
49843;BME280;55559;48.898;9.184;2023-02-04T09:33:58;100194.16;;;6.47;100.00
49843;BME280;55559;48.898;9.184;2023-02-04T09:36:26;100183.66;;;6.64;100.00
49843;BME280;55559;48.898;9.184;2023-02-04T09:38:55;100193.13;;;6.70;100.00
49843;BME280;55559;48.898;9.184;2023-02-04T09:41:22;100185.06;;;6.92;100.00
49843;BME280;55559;48.898;9.184;2023-02-04T09:43:50;100195.19;;;6.63;100.00
49843;BME280;55559;48.898;9.184;2023-02-04T09:46:19;100195.63;;;6.73;100.00
49843;BME280;55559;48.898;9.184;2023-02-04T09:48:49;100203.63;;;6.72;100.00
49843;BME280;55559;48.898;9.184;2023-02-04T09:51:20;100202.44;;;6.98;100.00
49843;BME280;55559;48.898;9.184;2023-02-04T09:53:49;100200.16;;;7.09;100.00
49843;BME280;55559;48.898;9.184;2023-02-04T09:56:18;100198.94;;;7.16;100.00
49843;BME280;55559;48.898;9.184;2023-02-04T09:58:46;100207.56;;;6.82;100.00
49843;BME280;55559;48.898;9.184;2023-02-04T10:01:16;100205.91;;;6.79;100.00
49843;BME280;55559;48.898;9.184;2023-02-04T10:03:46;100203.66;;;6.91;100.00
49843;BME280;55559;48.898;9.184;2023-02-04T10:06:18;100201.19;;;6.67;100.00
49843;BME280;55559;48.898;9.184;2023-02-04T10:08:47;100202.53;;;6.57;100.00
49843;BME280;55559;48.898;9.184;2023-02-04T10:11:16;100197.38;;;6.93;100.00
49843;BME280;55559;48.898;9.184;2023-02-04T10:13:46;100191.19;;;6.93;100.00
49843;BME280;55559;48.898;9.184;2023-02-04T10:16:16;100203.06;;;6.84;100.00
49843;BME280;55559;48.898;9.184;2023-02-04T10:18:48;100203.94;;;7.03;100.00
49843;BME280;55559;48.898;9.184;2023-02-04T10:21:20;100206.22;;;7.11;100.00
49843;BME280;55559;48.898;9.184;2023-02-04T10:23:50;100200.38;;;7.23;100.00
49843;BME280;55559;48.898;9.184;2023-02-04T10:26:21;100190.13;;;7.16;100.00
49843;BME280;55559;48.898;9.184;2023-02-04T10:28:48;100196.72;;;7.26;100.00
49843;BME280;55559;48.898;9.184;2023-02-04T10:31:33;100191.91;;;7.34;100.00
49843;BME280;55559;48.898;9.184;2023-02-04T10:34:09;100189.78;;;7.23;100.00
49843;BME280;55559;48.898;9.184;2023-02-04T10:36:39;100186.63;;;6.77;100.00
49843;BME280;55559;48.898;9.184;2023-02-04T10:39:11;100194.22;;;6.85;100.00
49843;BME280;55559;48.898;9.184;2023-02-04T10:41:44;100190.75;;;6.83;100.00
49843;BME280;55559;48.898;9.184;2023-02-04T10:44:14;100194.50;;;6.98;100.00
49843;BME280;55559;48.898;9.184;2023-02-04T10:46:42;100193.78;;;6.94;100.00
49843;BME280;55559;48.898;9.184;2023-02-04T10:49:20;100197.00;;;6.82;100.00
49843;BME280;55559;48.898;9.184;2023-02-04T10:51:51;100193.56;;;6.99;100.00
49843;BME280;55559;48.898;9.184;2023-02-04T10:54:20;100186.88;;;6.92;100.00
49843;BME280;55559;48.898;9.184;2023-02-04T10:57:03;100187.47;;;6.78;100.00
49843;BME280;55559;48.898;9.184;2023-02-04T10:59:33;100191.69;;;7.20;100.00
49843;BME280;55559;48.898;9.184;2023-02-04T11:04:54;100202.31;;;7.56;100.00
49843;BME280;55559;48.898;9.184;2023-02-04T11:07:24;100198.97;;;7.53;100.00
49843;BME280;55559;48.898;9.184;2023-02-04T11:09:52;100207.00;;;7.32;100.00
49843;BME280;55559;48.898;9.184;2023-02-04T11:12:21;100199.63;;;7.20;100.00
49843;BME280;55559;48.898;9.184;2023-02-04T11:14:56;100202.59;;;7.69;100.00
49843;BME280;55559;48.898;9.184;2023-02-04T11:17:28;100210.16;;;7.40;100.00
49843;BME280;55559;48.898;9.184;2023-02-04T11:19:57;100200.84;;;7.13;100.00
49843;BME280;55559;48.898;9.184;2023-02-04T11:22:42;100195.53;;;7.32;100.00
49843;BME280;55559;48.898;9.184;2023-02-04T11:25:32;100185.44;;;7.59;100.00
49843;BME280;55559;48.898;9.184;2023-02-04T11:28:00;100191.06;;;8.05;100.00
49843;BME280;55559;48.898;9.184;2023-02-04T11:30:39;100192.00;;;7.87;100.00
49843;BME280;55559;48.898;9.184;2023-02-04T11:33:22;100191.19;;;7.67;100.00
49843;BME280;55559;48.898;9.184;2023-02-04T11:36:04;100194.38;;;7.74;100.00
49843;BME280;55559;48.898;9.184;2023-02-04T11:38:33;100187.06;;;7.79;100.00
49843;BME280;55559;48.898;9.184;2023-02-04T11:41:01;100191.78;;;7.91;100.00
49843;BME280;55559;48.898;9.184;2023-02-04T11:43:32;100186.84;;;7.83;100.00
49843;BME280;55559;48.898;9.184;2023-02-04T11:46:02;100183.78;;;8.26;100.00
49843;BME280;55559;48.898;9.184;2023-02-04T11:48:31;100179.66;;;8.89;100.00
49843;BME280;55559;48.898;9.184;2023-02-04T11:51:01;100182.56;;;8.33;100.00
49843;BME280;55559;48.898;9.184;2023-02-04T11:53:29;100183.69;;;8.63;100.00
49843;BME280;55559;48.898;9.184;2023-02-04T11:55:58;100189.25;;;8.41;100.00
49843;BME280;55559;48.898;9.184;2023-02-04T11:58:28;100186.41;;;7.93;100.00
49843;BME280;55559;48.898;9.184;2023-02-04T12:00:56;100184.38;;;7.98;100.00
49843;BME280;55559;48.898;9.184;2023-02-04T12:03:25;100185.75;;;8.23;100.00
49843;BME280;55559;48.898;9.184;2023-02-04T12:05:54;100189.28;;;8.23;100.00
49843;BME280;55559;48.898;9.184;2023-02-04T12:08:29;100183.59;;;9.13;100.00
49843;BME280;55559;48.898;9.184;2023-02-04T12:11:09;100183.66;;;9.12;100.00
49843;BME280;55559;48.898;9.184;2023-02-04T12:13:47;100191.38;;;8.34;100.00
49843;BME280;55559;48.898;9.184;2023-02-04T12:16:15;100196.13;;;7.92;100.00
49843;BME280;55559;48.898;9.184;2023-02-04T12:18:43;100194.56;;;7.88;100.00
49843;BME280;55559;48.898;9.184;2023-02-04T12:21:11;100196.47;;;7.67;100.00
49843;BME280;55559;48.898;9.184;2023-02-04T12:23:39;100204.31;;;8.05;100.00
49843;BME280;55559;48.898;9.184;2023-02-04T12:26:08;100206.00;;;7.89;100.00
49843;BME280;55559;48.898;9.184;2023-02-04T12:28:36;100213.63;;;7.77;100.00
49843;BME280;55559;48.898;9.184;2023-02-04T12:31:03;100211.59;;;7.65;100.00
49843;BME280;55559;48.898;9.184;2023-02-04T12:33:31;100211.66;;;7.63;100.00
49843;BME280;55559;48.898;9.184;2023-02-04T12:35:58;100202.16;;;7.59;100.00
49843;BME280;55559;48.898;9.184;2023-02-04T12:38:26;100198.63;;;7.41;100.00
49843;BME280;55559;48.898;9.184;2023-02-04T12:40:53;100200.19;;;7.45;100.00
49843;BME280;55559;48.898;9.184;2023-02-04T12:43:22;100206.19;;;7.30;100.00
49843;BME280;55559;48.898;9.184;2023-02-04T12:45:50;100206.75;;;7.37;100.00
49843;BME280;55559;48.898;9.184;2023-02-04T12:48:18;100202.28;;;7.20;100.00
49843;BME280;55559;48.898;9.184;2023-02-04T12:50:45;100213.38;;;7.09;100.00
49843;BME280;55559;48.898;9.184;2023-02-04T12:53:13;100213.59;;;7.04;100.00
49843;BME280;55559;48.898;9.184;2023-02-04T12:55:41;100219.16;;;7.17;100.00
49843;BME280;55559;48.898;9.184;2023-02-04T12:58:09;100202.06;;;7.24;100.00
49843;BME280;55559;48.898;9.184;2023-02-04T13:00:38;100202.00;;;7.26;100.00
49843;BME280;55559;48.898;9.184;2023-02-04T13:03:07;100204.03;;;7.57;100.00
49843;BME280;55559;48.898;9.184;2023-02-04T13:05:37;100203.41;;;7.52;100.00